createdAt,value
2022-12-06T00:02:13.694Z,2.27
2022-12-06T00:04:40.734Z,2.63
2022-12-06T00:07:07.395Z,2.66
2022-12-06T00:09:35.485Z,2.45
2022-12-06T00:12:02.257Z,2.68
2022-12-06T00:14:28.970Z,2.63
2022-12-06T00:16:55.857Z,2.62
2022-12-06T00:19:23.979Z,2.65
2022-12-06T00:21:51.641Z,2.65
2022-12-06T00:24:20.535Z,2.54
2022-12-06T00:26:50.227Z,2.68
2022-12-06T00:29:19.181Z,2.70
2022-12-06T00:31:46.131Z,2.34
2022-12-06T00:34:13.181Z,2.43
2022-12-06T00:36:41.503Z,2.38
2022-12-06T00:39:10.435Z,2.51
2022-12-06T00:41:37.434Z,2.55
2022-12-06T00:44:05.853Z,2.63
2022-12-06T00:46:34.112Z,2.59
2022-12-06T00:49:02.865Z,2.62
2022-12-06T00:51:31.571Z,2.65
2022-12-06T00:53:59.164Z,2.43
2022-12-06T00:56:26.117Z,2.47
2022-12-06T00:58:52.770Z,2.70
2022-12-06T01:01:22.781Z,1.92
2022-12-06T01:03:50.817Z,2.69
2022-12-06T01:06:18.857Z,2.61
2022-12-06T01:08:45.535Z,2.65
2022-12-06T01:11:14.857Z,2.66
2022-12-06T01:13:41.565Z,2.19
2022-12-06T01:16:11.116Z,2.68
2022-12-06T01:18:40.281Z,2.64
2022-12-06T01:21:08.731Z,2.61
2022-12-06T01:23:35.365Z,2.50
2022-12-06T01:26:02.149Z,2.32
2022-12-06T01:28:29.210Z,2.48
2022-12-06T01:30:55.929Z,2.61
2022-12-06T01:33:22.986Z,2.59
2022-12-06T01:35:51.169Z,2.19
2022-12-06T01:38:17.830Z,2.63
2022-12-06T01:40:45.962Z,2.60
2022-12-06T01:43:32.409Z,2.56
2022-12-06T01:46:04.079Z,2.26
2022-12-06T01:48:31.074Z,2.41
2022-12-06T01:51:00.272Z,2.44
2022-12-06T01:53:27.604Z,2.55
2022-12-06T01:55:54.871Z,2.31
2022-12-06T01:58:29.653Z,2.55
2022-12-06T02:00:56.352Z,2.54
2022-12-06T02:03:26.698Z,2.46
2022-12-06T02:05:54.016Z,2.44
2022-12-06T02:08:22.814Z,2.39
2022-12-06T02:10:49.717Z,1.98
2022-12-06T02:13:16.707Z,2.59
2022-12-06T02:15:53.644Z,2.60
2022-12-06T02:18:29.489Z,2.55
2022-12-06T02:21:04.618Z,1.89
2022-12-06T02:23:48.258Z,2.65
2022-12-06T02:26:36.505Z,2.64
2022-12-06T02:29:36.422Z,2.59
2022-12-06T02:32:10.601Z,2.20
2022-12-06T02:34:42.973Z,2.57
2022-12-06T02:37:12.504Z,2.63
2022-12-06T02:39:46.988Z,2.67
2022-12-06T02:42:18.886Z,2.69
2022-12-06T02:44:47.718Z,2.60
2022-12-06T02:47:18.592Z,2.60
2022-12-06T02:49:47.661Z,2.58
2022-12-06T02:52:15.300Z,2.58
2022-12-06T02:54:45.544Z,2.42
2022-12-06T02:57:12.186Z,2.68
2022-12-06T02:59:38.929Z,2.53
2022-12-06T03:02:10.750Z,2.73
2022-12-06T03:04:46.327Z,2.72
2022-12-06T03:07:26.552Z,2.49
2022-12-06T03:10:09.995Z,2.75
2022-12-06T03:12:45.828Z,2.76
2022-12-06T03:15:19.695Z,2.58
2022-12-06T03:17:49.903Z,2.68
2022-12-06T03:20:21.752Z,2.07
2022-12-06T03:22:51.643Z,2.81
2022-12-06T03:25:18.485Z,2.83
2022-12-06T03:27:48.128Z,2.64
2022-12-06T03:30:15.769Z,2.88
2022-12-06T03:32:46.589Z,2.90
2022-12-06T03:35:17.803Z,2.92
2022-12-06T03:37:49.798Z,2.92
2022-12-06T03:40:17.623Z,2.88
2022-12-06T03:42:44.791Z,2.91
2022-12-06T03:45:12.387Z,2.91
2022-12-06T03:47:45.957Z,2.94
2022-12-06T03:50:19.129Z,2.96
2022-12-06T03:52:47.320Z,2.93
2022-12-06T03:55:13.822Z,2.92
2022-12-06T03:57:40.425Z,2.93
2022-12-06T04:00:08.244Z,2.24
2022-12-06T04:02:38.039Z,2.54
2022-12-06T04:05:05.835Z,2.94
2022-12-06T04:07:32.645Z,2.91
2022-12-06T04:10:01.224Z,2.97
2022-12-06T04:12:28.605Z,2.97
2022-12-06T04:14:55.238Z,3.00
2022-12-06T04:17:22.090Z,3.03
2022-12-06T04:19:58.438Z,3.01
2022-12-06T04:22:25.088Z,2.96
2022-12-06T04:24:51.706Z,2.98
2022-12-06T04:27:19.739Z,3.02
2022-12-06T04:29:46.374Z,2.85
2022-12-06T04:32:12.996Z,3.04
2022-12-06T04:34:39.531Z,3.04
2022-12-06T04:37:06.668Z,3.04
2022-12-06T04:39:33.578Z,2.83
2022-12-06T04:42:00.805Z,3.06
2022-12-06T04:44:28.864Z,3.13
2022-12-06T04:46:55.573Z,3.04
2022-12-06T04:49:22.088Z,3.14
2022-12-06T04:51:48.878Z,3.17
2022-12-06T04:54:15.382Z,2.72
2022-12-06T04:56:41.945Z,3.17
2022-12-06T04:59:08.558Z,3.19
2022-12-06T05:01:36.636Z,3.21
2022-12-06T05:04:03.289Z,3.23
2022-12-06T05:06:29.886Z,3.23
2022-12-06T05:08:56.432Z,3.25
2022-12-06T05:11:23.052Z,3.12
2022-12-06T05:13:49.673Z,3.30
2022-12-06T05:16:16.371Z,3.13
2022-12-06T05:18:44.389Z,3.32
2022-12-06T05:21:13.590Z,3.32
2022-12-06T05:23:40.743Z,3.36
2022-12-06T05:26:10.467Z,3.12
2022-12-06T05:28:37.101Z,2.98
2022-12-06T05:31:04.111Z,3.23
2022-12-06T05:33:30.976Z,3.36
2022-12-06T05:35:59.116Z,3.39
2022-12-06T05:38:25.897Z,3.15
2022-12-06T05:40:52.621Z,3.40
2022-12-06T05:43:19.432Z,3.24
2022-12-06T05:45:46.104Z,3.41
2022-12-06T05:48:12.654Z,3.46
2022-12-06T05:50:39.470Z,3.47
2022-12-06T05:53:07.410Z,3.46
2022-12-06T05:55:33.923Z,3.47
2022-12-06T05:58:00.477Z,3.50
2022-12-06T06:00:26.997Z,3.50
2022-12-06T06:02:53.764Z,3.53
2022-12-06T06:05:20.504Z,3.51
2022-12-06T06:07:47.096Z,3.53
2022-12-06T06:10:15.553Z,3.55
2022-12-06T06:12:42.207Z,3.55
2022-12-06T06:15:09.387Z,3.51
2022-12-06T06:17:35.923Z,3.53
2022-12-06T06:20:03.017Z,3.53
2022-12-06T06:22:29.662Z,3.54
2022-12-06T06:24:56.261Z,3.54
2022-12-06T06:27:24.274Z,3.56
2022-12-06T06:29:50.824Z,3.57
2022-12-06T06:32:17.393Z,3.53
2022-12-06T06:34:43.986Z,3.53
2022-12-06T06:37:10.568Z,3.57
2022-12-06T06:39:37.077Z,3.55
2022-12-06T06:42:03.980Z,3.29
2022-12-06T06:44:31.863Z,3.48
2022-12-06T06:46:58.481Z,3.51
2022-12-06T06:49:25.066Z,3.55
2022-12-06T06:51:53.885Z,3.60
2022-12-06T06:54:20.584Z,3.59
2022-12-06T06:56:47.341Z,3.60
2022-12-06T06:59:13.866Z,3.63
2022-12-06T07:01:41.797Z,3.65
2022-12-06T07:04:08.384Z,3.66
2022-12-06T07:06:34.991Z,3.45
2022-12-06T07:09:03.028Z,3.39
2022-12-06T07:11:29.642Z,3.70
2022-12-06T07:13:56.209Z,3.63
2022-12-06T07:16:22.868Z,3.74
2022-12-06T07:18:50.796Z,3.75
2022-12-06T07:21:17.715Z,3.77
2022-12-06T07:23:44.512Z,3.61
2022-12-06T07:26:13.229Z,3.67
2022-12-06T07:28:41.203Z,3.77
2022-12-06T07:31:09.204Z,3.78
2022-12-06T07:33:35.993Z,3.64
2022-12-06T07:36:12.002Z,3.80
2022-12-06T07:38:40.389Z,3.81
2022-12-06T07:41:09.491Z,3.84
2022-12-06T07:43:36.216Z,3.86
2022-12-06T07:46:02.856Z,3.87
2022-12-06T07:48:29.720Z,3.73
2022-12-06T07:50:56.236Z,3.86
2022-12-06T07:53:24.282Z,3.70
2022-12-06T07:55:50.782Z,3.84
2022-12-06T07:58:17.389Z,3.91
2022-12-06T08:00:44.859Z,3.87
2022-12-06T08:03:12.038Z,3.93
2022-12-06T08:05:38.544Z,3.93
2022-12-06T08:08:05.432Z,3.97
2022-12-06T08:10:33.330Z,3.86
2022-12-06T08:12:59.886Z,3.98
2022-12-06T08:15:26.446Z,3.99
2022-12-06T08:17:53.857Z,3.97
2022-12-06T08:20:20.419Z,3.86
2022-12-06T08:22:47.154Z,4.03
2022-12-06T08:25:13.687Z,4.00
2022-12-06T08:27:41.639Z,4.00
2022-12-06T08:30:09.006Z,3.93
2022-12-06T08:32:35.568Z,4.02
2022-12-06T08:35:02.086Z,4.06
2022-12-06T08:37:28.705Z,3.73
2022-12-06T08:39:55.261Z,4.04
2022-12-06T08:42:25.230Z,4.07
2022-12-06T08:44:53.467Z,3.98
2022-12-06T08:47:20.139Z,4.07
2022-12-06T08:49:46.682Z,4.10
2022-12-06T08:52:13.293Z,4.05
2022-12-06T08:54:39.993Z,4.00
2022-12-06T08:57:06.660Z,4.03
2022-12-06T08:59:33.362Z,4.03
2022-12-06T09:02:01.296Z,3.92
2022-12-06T09:04:27.918Z,4.13
2022-12-06T09:06:54.578Z,4.19
2022-12-06T09:09:21.304Z,4.04
2022-12-06T09:11:50.737Z,4.23
2022-12-06T09:14:21.869Z,4.24
2022-12-06T09:16:51.067Z,4.26
2022-12-06T09:19:19.774Z,4.12
2022-12-06T09:21:46.359Z,4.31
2022-12-06T09:24:14.981Z,4.21
2022-12-06T09:26:41.787Z,4.20
2022-12-06T09:29:09.208Z,4.29
2022-12-06T09:31:36.106Z,4.34
2022-12-06T09:34:02.851Z,4.38
2022-12-06T09:36:31.363Z,4.39
2022-12-06T09:39:03.355Z,4.40
2022-12-06T09:41:51.120Z,4.43
2022-12-06T09:44:40.485Z,4.44
2022-12-06T09:47:17.452Z,4.46
2022-12-06T09:49:57.185Z,4.50
2022-12-06T09:52:59.924Z,4.35
2022-12-06T09:55:40.364Z,4.58
2022-12-06T09:58:17.662Z,4.62
2022-12-06T10:00:49.216Z,4.63
2022-12-06T10:03:48.572Z,4.47
2022-12-06T10:06:18.325Z,4.66
2022-12-06T10:09:03.513Z,4.69
2022-12-06T10:11:43.696Z,4.68
2022-12-06T10:14:24.015Z,4.74
2022-12-06T10:16:55.632Z,4.73
2022-12-06T10:19:34.296Z,4.75
2022-12-06T10:22:12.205Z,4.72
2022-12-06T10:24:56.904Z,4.67
2022-12-06T10:27:29.290Z,4.75
2022-12-06T10:29:59.154Z,4.18
2022-12-06T10:32:50.164Z,4.82
2022-12-06T10:35:21.237Z,4.26
2022-12-06T10:37:59.766Z,4.77
2022-12-06T10:40:31.229Z,4.42
2022-12-06T10:43:02.349Z,3.85
2022-12-06T10:45:34.769Z,4.85
2022-12-06T10:48:07.293Z,4.89
2022-12-06T10:50:37.906Z,4.59
2022-12-06T10:53:11.540Z,4.55
2022-12-06T10:55:46.790Z,4.36
2022-12-06T10:58:22.365Z,4.36
2022-12-06T11:00:56.427Z,4.53
2022-12-06T11:03:29.826Z,5.12
2022-12-06T11:06:05.296Z,4.74
2022-12-06T11:08:36.852Z,4.88
2022-12-06T11:11:10.189Z,5.18
2022-12-06T11:13:41.658Z,5.15
2022-12-06T11:16:14.468Z,4.92
2022-12-06T11:18:42.395Z,4.24
2022-12-06T11:21:24.351Z,4.97
2022-12-06T11:23:56.804Z,3.92
2022-12-06T11:26:34.723Z,4.13
2022-12-06T11:29:03.997Z,4.22
2022-12-06T11:31:33.024Z,5.35
2022-12-06T11:34:00.297Z,5.37
2022-12-06T11:36:27.280Z,5.35
2022-12-06T11:38:53.967Z,5.42
2022-12-06T11:41:23.948Z,5.46
2022-12-06T11:43:53.834Z,5.52
2022-12-06T11:46:21.440Z,5.48
2022-12-06T11:48:48.418Z,5.07
2022-12-06T11:51:19.029Z,5.36
2022-12-06T11:53:56.143Z,5.59
2022-12-06T11:56:25.067Z,5.38
2022-12-06T11:59:03.198Z,5.47
2022-12-06T12:01:42.040Z,4.99
2022-12-06T12:04:30.068Z,4.79
2022-12-06T12:06:59.904Z,5.24
2022-12-06T12:09:30.440Z,5.75
2022-12-06T12:12:02.317Z,5.73
2022-12-06T12:14:33.494Z,5.68
2022-12-06T12:17:02.584Z,5.70
2022-12-06T12:19:35.721Z,5.74
2022-12-06T12:22:16.142Z,5.75
2022-12-06T12:27:46.174Z,5.77
2022-12-06T12:30:28.896Z,5.77
2022-12-06T12:33:14.495Z,5.80
2022-12-06T12:35:43.163Z,5.82
2022-12-06T12:38:16.579Z,5.79
2022-12-06T12:40:45.705Z,5.91
2022-12-06T12:43:17.785Z,5.94
2022-12-06T12:46:14.234Z,5.95
2022-12-06T12:48:43.289Z,5.54
2022-12-06T12:51:22.510Z,5.71
2022-12-06T12:53:55.142Z,5.74
2022-12-06T12:56:22.483Z,5.98
2022-12-06T12:58:51.894Z,6.02
2022-12-06T13:01:39.645Z,6.07
2022-12-06T13:04:15.229Z,6.08
2022-12-06T13:06:49.044Z,6.09
2022-12-06T13:09:24.097Z,6.12
2022-12-06T13:11:56.434Z,5.83
2022-12-06T13:14:26.182Z,5.94
2022-12-06T13:16:58.707Z,5.00
2022-12-06T13:19:34.438Z,4.78
2022-12-06T13:22:04.326Z,5.69
2022-12-06T13:24:35.925Z,6.06
2022-12-06T13:27:07.456Z,5.67
2022-12-06T13:29:38.640Z,5.64
2022-12-06T13:32:13.972Z,5.47
2022-12-06T13:34:47.620Z,5.36
2022-12-06T13:37:28.295Z,5.66
2022-12-06T13:39:55.826Z,5.51
2022-12-06T13:42:41.399Z,5.55
2022-12-06T13:45:38.951Z,6.03
2022-12-06T13:48:38.504Z,5.98
2022-12-06T13:51:10.380Z,6.09
2022-12-06T13:54:00.277Z,6.02
2022-12-06T13:56:28.952Z,6.02
2022-12-06T13:58:59.486Z,6.01
2022-12-06T14:01:40.983Z,5.81
2022-12-06T14:06:59.417Z,6.01
2022-12-06T14:09:28.270Z,6.04
2022-12-06T14:11:59.443Z,6.05
2022-12-06T14:14:26.766Z,5.88
2022-12-06T14:16:56.888Z,5.90
2022-12-06T14:19:32.035Z,5.99
2022-12-06T14:22:02.183Z,5.73
2022-12-06T14:24:33.106Z,6.03
2022-12-06T14:27:04.653Z,6.07
2022-12-06T14:29:31.724Z,6.07
2022-12-06T14:31:58.346Z,6.03
2022-12-06T14:34:26.153Z,5.95
2022-12-06T14:36:53.719Z,5.98
2022-12-06T14:39:25.186Z,5.89
2022-12-06T14:41:53.650Z,5.94
2022-12-06T14:44:27.136Z,5.92
2022-12-06T14:46:54.803Z,5.89
2022-12-06T14:49:22.919Z,5.89
2022-12-06T14:51:51.099Z,5.82
2022-12-06T14:54:18.503Z,5.87
2022-12-06T14:56:46.546Z,5.87
2022-12-06T14:59:13.173Z,5.86
2022-12-06T15:01:47.025Z,5.68
2022-12-06T15:04:25.885Z,5.69
2022-12-06T15:06:54.247Z,5.56
2022-12-06T15:09:20.876Z,5.59
2022-12-06T15:11:49.270Z,5.64
2022-12-06T15:14:17.719Z,5.66
2022-12-06T15:16:46.374Z,5.72
2022-12-06T15:19:14.420Z,5.66
2022-12-06T15:21:41.108Z,5.60
2022-12-06T15:24:18.612Z,5.64
2022-12-06T15:26:45.501Z,5.49
2022-12-06T15:29:13.697Z,5.59
2022-12-06T15:31:42.405Z,5.36
2022-12-06T15:34:27.673Z,5.51
2022-12-06T15:37:15.262Z,5.49
2022-12-06T15:39:43.010Z,5.45
2022-12-06T15:42:15.819Z,5.33
2022-12-06T15:44:48.825Z,5.38
2022-12-06T15:47:16.929Z,5.46
2022-12-06T15:49:43.566Z,5.42
2022-12-06T15:52:15.101Z,5.41
2022-12-06T15:54:41.764Z,5.28
2022-12-06T15:57:08.319Z,5.23
2022-12-06T15:59:34.965Z,5.26
2022-12-06T16:02:04.316Z,5.29
2022-12-06T16:04:31.138Z,5.29
2022-12-06T16:06:57.725Z,5.29
2022-12-06T16:09:26.141Z,5.26
2022-12-06T16:11:52.671Z,5.23
2022-12-06T16:14:19.280Z,5.20
2022-12-06T16:16:45.801Z,5.19
2022-12-06T16:19:13.776Z,5.20
2022-12-06T16:21:51.973Z,4.94
2022-12-06T16:24:18.634Z,5.14
2022-12-06T16:26:46.098Z,5.04
2022-12-06T16:29:15.348Z,5.09
2022-12-06T16:31:41.994Z,5.06
2022-12-06T16:34:09.237Z,5.03
2022-12-06T16:36:56.668Z,5.01
2022-12-06T16:39:23.585Z,4.97
2022-12-06T16:41:50.132Z,4.96
2022-12-06T16:44:16.762Z,4.93
2022-12-06T16:46:43.324Z,4.83
2022-12-06T16:49:44.821Z,4.89
2022-12-06T16:52:03.442Z,4.80
2022-12-06T16:54:29.950Z,4.86
2022-12-06T16:56:56.534Z,4.92
2022-12-06T16:59:23.113Z,4.89
2022-12-06T17:01:51.712Z,4.81
2022-12-06T17:04:18.591Z,4.85
2022-12-06T17:06:45.282Z,4.83
2022-12-06T17:09:13.884Z,4.83
2022-12-06T17:11:41.131Z,4.81
2022-12-06T17:14:07.921Z,4.80
2022-12-06T17:16:34.936Z,4.79
2022-12-06T17:19:01.965Z,4.79
2022-12-06T17:21:28.615Z,4.55
2022-12-06T17:23:56.539Z,4.56
2022-12-06T17:26:24.473Z,4.72
2022-12-06T17:28:51.119Z,4.71
2022-12-06T17:31:17.670Z,4.71
2022-12-06T17:33:44.489Z,4.63
2022-12-06T17:36:13.008Z,4.71
2022-12-06T17:38:40.386Z,4.71
2022-12-06T17:41:13.702Z,4.70
2022-12-06T17:43:41.667Z,4.69
2022-12-06T17:46:08.800Z,4.66
2022-12-06T17:48:40.159Z,4.67
2022-12-06T17:51:09.667Z,4.34
2022-12-06T17:53:36.208Z,4.62
2022-12-06T17:56:24.712Z,4.58
2022-12-06T17:58:54.530Z,4.48
2022-12-06T18:01:22.195Z,4.39
2022-12-06T18:03:51.078Z,4.52
2022-12-06T18:06:18.168Z,4.50
2022-12-06T18:08:44.945Z,4.50
2022-12-06T18:11:11.692Z,4.50
2022-12-06T18:13:38.256Z,4.48
2022-12-06T18:16:15.264Z,4.46
2022-12-06T18:18:42.842Z,4.45
2022-12-06T18:21:09.719Z,4.40
2022-12-06T18:23:40.901Z,4.46
2022-12-06T18:26:16.121Z,4.44
2022-12-06T18:28:44.497Z,4.45
2022-12-06T18:31:12.492Z,4.38
2022-12-06T18:33:40.456Z,4.41
2022-12-06T18:36:08.206Z,4.39
2022-12-06T18:38:35.882Z,4.32
2022-12-06T18:41:04.327Z,4.31
2022-12-06T18:43:30.918Z,4.28
2022-12-06T18:45:58.650Z,4.30
2022-12-06T18:48:25.435Z,4.31
2022-12-06T18:50:53.388Z,4.32
2022-12-06T18:53:20.099Z,4.22
2022-12-06T18:55:46.948Z,4.30
2022-12-06T18:58:13.760Z,4.30
2022-12-06T19:00:41.097Z,4.17
2022-12-06T19:03:08.066Z,4.32
2022-12-06T19:06:01.464Z,4.28
2022-12-06T19:08:22.660Z,4.25
2022-12-06T19:10:49.190Z,4.26
2022-12-06T19:13:15.816Z,4.28
2022-12-06T19:15:42.470Z,4.28
2022-12-06T19:18:09.031Z,4.28
2022-12-06T19:20:35.523Z,4.22
2022-12-06T19:23:11.729Z,4.23
2022-12-06T19:25:39.653Z,4.27
2022-12-06T19:28:06.450Z,4.27
2022-12-06T19:30:33.317Z,4.30
2022-12-06T19:32:59.866Z,4.24
2022-12-06T19:35:26.558Z,4.30
2022-12-06T19:37:53.171Z,4.29
2022-12-06T19:40:19.775Z,4.28
2022-12-06T19:42:47.623Z,4.29
2022-12-06T19:45:14.599Z,4.28
2022-12-06T19:47:41.095Z,4.27
2022-12-06T19:50:08.843Z,4.32
2022-12-06T19:52:35.379Z,4.32
2022-12-06T19:55:01.923Z,4.28
2022-12-06T19:57:28.405Z,4.29
2022-12-06T19:59:56.434Z,4.31
2022-12-06T20:02:23.017Z,4.32
2022-12-06T20:04:49.799Z,4.29
2022-12-06T20:07:16.660Z,4.28
2022-12-06T20:09:43.645Z,4.35
2022-12-06T20:12:11.279Z,4.23
2022-12-06T20:14:39.609Z,4.33
2022-12-06T20:17:09.416Z,4.35
2022-12-06T20:19:36.118Z,4.36
2022-12-06T20:22:03.282Z,4.35
2022-12-06T20:24:30.144Z,4.24
2022-12-06T20:26:56.683Z,4.35
2022-12-06T20:29:23.807Z,4.28
2022-12-06T20:31:50.692Z,4.32
2022-12-06T20:34:19.338Z,4.35
2022-12-06T20:36:46.302Z,4.35
2022-12-06T20:39:19.081Z,4.33
2022-12-06T20:41:47.493Z,4.23
2022-12-06T20:44:14.294Z,4.37
2022-12-06T20:46:41.063Z,4.32
2022-12-06T20:49:07.707Z,4.40
2022-12-06T20:51:36.126Z,4.36
2022-12-06T20:54:04.959Z,4.37
2022-12-06T20:56:34.871Z,4.39
2022-12-06T20:59:02.418Z,4.26
2022-12-06T21:01:31.542Z,4.41
2022-12-06T21:03:58.301Z,4.34
2022-12-06T21:06:26.217Z,4.35
2022-12-06T21:08:55.276Z,4.42
2022-12-06T21:11:24.093Z,4.43
2022-12-06T21:13:51.653Z,4.45
2022-12-06T21:16:21.130Z,4.45
2022-12-06T21:18:47.740Z,4.28
2022-12-06T21:21:21.001Z,4.47
2022-12-06T21:23:47.615Z,4.48
2022-12-06T21:26:15.522Z,4.50
2022-12-06T21:28:42.118Z,4.41
2022-12-06T21:31:08.774Z,4.52
2022-12-06T21:33:35.603Z,4.50
2022-12-06T21:36:03.633Z,4.47
2022-12-06T21:38:30.886Z,4.47
2022-12-06T21:41:03.492Z,4.53
2022-12-06T21:43:31.610Z,4.53
2022-12-06T21:46:02.879Z,4.46
2022-12-06T21:48:29.663Z,4.52
2022-12-06T21:51:00.584Z,4.47
2022-12-06T21:53:27.192Z,4.50
2022-12-06T21:55:53.915Z,4.50
2022-12-06T21:58:20.537Z,4.53
2022-12-06T22:00:48.497Z,4.55
2022-12-06T22:03:20.973Z,4.56
2022-12-06T22:05:49.483Z,4.58
2022-12-06T22:08:16.124Z,4.57
2022-12-06T22:10:42.891Z,4.59
2022-12-06T22:13:10.004Z,4.58
2022-12-06T22:15:37.326Z,4.37
2022-12-06T22:18:05.517Z,4.59
2022-12-06T22:20:32.481Z,4.58
2022-12-06T22:22:59.836Z,4.62
2022-12-06T22:25:26.686Z,4.61
2022-12-06T22:27:53.645Z,4.62
2022-12-06T22:30:20.536Z,4.61
2022-12-06T22:32:47.072Z,4.58
2022-12-06T22:35:15.284Z,4.63
2022-12-06T22:37:41.856Z,4.63
2022-12-06T22:40:09.110Z,4.63
2022-12-06T22:42:35.872Z,4.64
2022-12-06T22:45:02.573Z,4.59
2022-12-06T22:47:29.098Z,4.66
2022-12-06T22:49:55.837Z,4.70
2022-12-06T22:52:24.297Z,4.58
2022-12-06T22:54:51.673Z,4.69
2022-12-06T22:57:18.290Z,4.68
2022-12-06T22:59:44.900Z,4.60
2022-12-06T23:02:11.487Z,4.69
2022-12-06T23:04:38.247Z,4.59
2022-12-06T23:07:04.796Z,4.65
2022-12-06T23:09:32.751Z,4.67
2022-12-06T23:11:59.318Z,4.69
2022-12-06T23:14:25.990Z,4.69
2022-12-06T23:16:52.632Z,4.68
2022-12-06T23:19:19.278Z,4.68
2022-12-06T23:21:46.185Z,4.56
2022-12-06T23:24:14.092Z,4.67
2022-12-06T23:26:44.283Z,4.56
2022-12-06T23:29:11.519Z,4.62
2022-12-06T23:31:40.981Z,4.63
2022-12-06T23:34:11.770Z,4.66
2022-12-06T23:36:38.665Z,4.65
2022-12-06T23:39:06.472Z,4.61
2022-12-06T23:41:34.081Z,4.62
2022-12-06T23:44:02.857Z,4.57
2022-12-06T23:46:31.518Z,4.65
2022-12-06T23:48:58.978Z,4.67
2022-12-06T23:51:27.389Z,4.64
2022-12-06T23:53:55.581Z,4.68
2022-12-06T23:56:22.621Z,4.50
2022-12-06T23:58:50.277Z,4.69
